Time;durP1;ratioP1;P1;durP2;ratioP2;P2;SDS_P1;SDS_P2;PMS_P1;PMS_P2;Temp;Humidity;BMP_temperature;BMP_pressure;BME280_temperature;BME280_humidity;BME280_pressure;Samples;Min_cycle;Max_cycle;Signal;HPM_P1;HPM_P2
2023/12/08 00:00:09;;;;;;;14.82;8.40;;;1.20;99.90;;;;;;4919113;29;20047;-67
2023/12/08 00:02:34;;;;;;;16.65;8.93;;;1.20;99.90;;;;;;4918535;29;20517;-67
2023/12/08 00:05:00;;;;;;;15.27;9.45;;;1.20;99.90;;;;;;4915195;29;20036;-67
2023/12/08 00:07:26;;;;;;;16.80;9.23;;;1.20;99.90;;;;;;4914216;29;20036;-68
2023/12/08 00:09:51;;;;;;;18.30;8.70;;;1.30;99.90;;;;;;4913185;29;20028;-67
2023/12/08 00:12:17;;;;;;;14.65;9.05;;;1.30;99.90;;;;;;4913839;29;20032;-68
2023/12/08 00:14:42;;;;;;;15.90;8.57;;;1.30;99.90;;;;;;4913344;29;20050;-67
2023/12/08 00:17:08;;;;;;;14.02;9.25;;;1.30;99.90;;;;;;4913492;29;20043;-67
2023/12/08 00:19:34;;;;;;;13.95;8.82;;;1.40;99.90;;;;;;4914016;29;20032;-67
2023/12/08 00:22:00;;;;;;;14.45;8.50;;;1.40;99.90;;;;;;4912688;29;20040;-67
2023/12/08 00:24:25;;;;;;;13.75;8.68;;;1.30;99.90;;;;;;4914049;29;20028;-68
2023/12/08 00:26:51;;;;;;;16.70;9.38;;;1.30;99.90;;;;;;4898433;29;20032;-67
2023/12/08 00:29:19;;;;;;;14.45;9.35;;;1.30;99.90;;;;;;4917818;29;20039;-67
2023/12/08 00:31:46;;;;;;;15.70;9.50;;;1.30;99.90;;;;;;4916526;29;20036;-69
2023/12/08 00:34:11;;;;;;;14.48;8.85;;;1.30;99.90;;;;;;4917557;29;20063;-67
2023/12/08 00:36:37;;;;;;;19.15;9.38;;;1.30;99.90;;;;;;4916784;29;20059;-67
2023/12/08 00:39:02;;;;;;;15.98;8.90;;;1.20;99.90;;;;;;4898799;29;20055;-67
2023/12/08 00:41:28;;;;;;;14.52;9.40;;;1.20;99.90;;;;;;4912449;29;20135;-67
2023/12/08 00:43:54;;;;;;;14.15;8.73;;;1.20;99.90;;;;;;4914799;29;20028;-67
2023/12/08 00:46:19;;;;;;;14.57;9.23;;;1.30;99.90;;;;;;4916721;29;20462;-67
2023/12/08 00:48:45;;;;;;;16.42;8.85;;;1.30;99.90;;;;;;4916639;29;20039;-67
2023/12/08 00:51:14;;;;;;;15.07;9.52;;;1.30;99.90;;;;;;4916589;29;20040;-67
2023/12/08 00:53:42;;;;;;;15.80;9.57;;;1.40;99.90;;;;;;4916730;29;20170;-67
2023/12/08 00:56:09;;;;;;;14.35;9.30;;;1.50;99.90;;;;;;4915582;29;20020;-67
2023/12/08 00:58:34;;;;;;;13.88;8.88;;;1.50;99.90;;;;;;4917176;29;20035;-68
2023/12/08 01:01:00;;;;;;;13.00;8.18;;;1.40;99.90;;;;;;4915710;29;20032;-69
2023/12/08 01:03:25;;;;;;;17.10;9.90;;;1.40;99.90;;;;;;4917048;29;20036;-68
2023/12/08 01:05:51;;;;;;;16.35;9.05;;;1.40;99.90;;;;;;4915583;29;20048;-67
2023/12/08 01:08:17;;;;;;;14.65;9.50;;;1.50;99.90;;;;;;4916907;29;20032;-67
2023/12/08 01:10:42;;;;;;;18.38;9.60;;;1.50;99.90;;;;;;4916223;29;20069;-67
2023/12/08 01:13:08;;;;;;;15.15;9.40;;;1.50;99.90;;;;;;4915497;29;20032;-67
2023/12/08 01:15:33;;;;;;;16.88;9.55;;;1.40;99.90;;;;;;4916455;29;20032;-67
2023/12/08 01:17:59;;;;;;;15.75;9.48;;;1.40;99.90;;;;;;4915288;29;20394;-67
2023/12/08 01:20:25;;;;;;;17.05;9.40;;;1.30;99.90;;;;;;4916394;29;20111;-67
2023/12/08 01:22:51;;;;;;;14.80;9.32;;;1.30;99.90;;;;;;4915136;29;20032;-68
2023/12/08 01:25:17;;;;;;;14.40;8.98;;;1.30;99.90;;;;;;4916497;29;20079;-67
2023/12/08 01:27:42;;;;;;;15.30;9.52;;;1.20;99.90;;;;;;4915354;29;20421;-68
2023/12/08 01:30:08;;;;;;;15.00;9.95;;;1.30;99.90;;;;;;4916008;29;20477;-68
2023/12/08 01:32:34;;;;;;;13.68;8.73;;;1.30;99.90;;;;;;4898639;29;20382;-68
2023/12/08 01:34:59;;;;;;;13.25;8.70;;;1.30;99.90;;;;;;4915356;29;20020;-69
2023/12/08 01:37:25;;;;;;;15.68;9.45;;;1.30;99.90;;;;;;4915425;29;20514;-68
2023/12/08 01:39:52;;;;;;;19.40;10.68;;;1.40;99.90;;;;;;4915259;29;20459;-68
2023/12/08 01:42:17;;;;;;;17.30;10.30;;;1.40;99.90;;;;;;4915664;29;20048;-69
2023/12/08 01:44:43;;;;;;;17.75;10.35;;;1.40;99.90;;;;;;4915845;29;20035;-68
2023/12/08 01:47:10;;;;;;;19.85;11.32;;;1.30;99.90;;;;;;4915168;29;20820;-68
2023/12/08 01:49:37;;;;;;;14.07;10.07;;;1.30;99.90;;;;;;4915977;29;20032;-68
2023/12/08 01:52:03;;;;;;;20.67;10.15;;;1.20;99.90;;;;;;4914658;29;20020;-68
2023/12/08 01:54:29;;;;;;;17.73;9.98;;;1.20;99.90;;;;;;4916123;29;20108;-69
2023/12/08 01:56:55;;;;;;;15.80;10.18;;;1.20;99.90;;;;;;4914287;29;20107;-69
2023/12/08 01:59:21;;;;;;;14.73;9.77;;;1.10;99.90;;;;;;4916078;29;20116;-68
2023/12/08 02:01:47;;;;;;;15.02;9.07;;;1.10;99.90;;;;;;4914342;29;20115;-67
2023/12/08 02:04:13;;;;;;;15.75;9.80;;;1.10;99.90;;;;;;4915314;29;20035;-66
2023/12/08 02:06:39;;;;;;;14.05;8.95;;;1.10;99.90;;;;;;4915458;29;20024;-68
2023/12/08 02:09:07;;;;;;;15.13;9.50;;;1.10;99.90;;;;;;4915063;29;20032;-68
2023/12/08 02:11:33;;;;;;;14.02;8.52;;;1.10;99.90;;;;;;4915000;29;20038;-68
2023/12/08 02:13:59;;;;;;;14.98;9.18;;;1.10;99.90;;;;;;4914619;29;20142;-68
2023/12/08 02:16:36;;;;;;;14.23;9.05;;;1.10;99.90;;;;;;4915113;29;20032;-69
2023/12/08 02:19:03;;;;;;;17.45;9.10;;;1.10;99.90;;;;;;4914492;29;20054;-68
2023/12/08 02:21:29;;;;;;;15.98;8.90;;;1.10;99.90;;;;;;4914396;29;20040;-68
2023/12/08 02:23:54;;;;;;;12.57;8.02;;;1.10;99.90;;;;;;4914383;29;20051;-68
2023/12/08 02:26:20;;;;;;;15.40;8.40;;;1.10;99.90;;;;;;4914972;29;20032;-67
2023/12/08 02:28:46;;;;;;;15.65;9.73;;;1.20;99.90;;;;;;4914291;29;20032;-67
2023/12/08 02:31:19;;;;;;;14.35;8.93;;;1.20;99.90;;;;;;4914542;29;20090;-67
2023/12/08 02:33:48;;;;;;;15.70;8.65;;;1.20;99.90;;;;;;4914442;29;20043;-67
2023/12/08 02:36:17;;;;;;;14.95;8.63;;;1.20;99.90;;;;;;4914524;29;20040;-67
2023/12/08 02:38:43;;;;;;;14.32;8.48;;;1.10;99.90;;;;;;4914062;29;20048;-67
2023/12/08 02:41:09;;;;;;;15.32;8.88;;;1.10;99.90;;;;;;4912665;29;20047;-67
2023/12/08 02:43:35;;;;;;;15.20;7.80;;;1.10;99.90;;;;;;4910877;29;20028;-67
2023/12/08 02:46:00;;;;;;;13.90;8.90;;;1.10;99.90;;;;;;4913642;29;20172;-67
2023/12/08 02:48:26;;;;;;;12.73;8.23;;;1.10;99.90;;;;;;4914318;29;20028;-67
2023/12/08 02:50:52;;;;;;;13.40;8.40;;;1.10;99.90;;;;;;4913503;29;20128;-67
2023/12/08 02:53:18;;;;;;;12.15;7.15;;;1.20;99.90;;;;;;4914308;29;20032;-67
2023/12/08 02:55:43;;;;;;;11.85;7.15;;;1.20;99.90;;;;;;4914244;29;20028;-67
2023/12/08 02:58:09;;;;;;;11.55;7.43;;;1.10;99.90;;;;;;4913892;29;20024;-67
2023/12/08 03:00:34;;;;;;;15.98;8.70;;;1.10;99.90;;;;;;4914897;29;20462;-67
2023/12/08 03:03:00;;;;;;;11.63;7.03;;;1.10;99.90;;;;;;4913351;29;20040;-67
2023/12/08 03:05:26;;;;;;;13.82;8.13;;;1.10;99.90;;;;;;4914991;29;20111;-67
2023/12/08 03:07:51;;;;;;;12.30;7.38;;;1.10;99.90;;;;;;4912928;29;20032;-67
2023/12/08 03:10:17;;;;;;;11.52;7.40;;;1.10;99.90;;;;;;4914646;29;20496;-67
2023/12/08 03:12:42;;;;;;;13.07;7.75;;;1.10;99.90;;;;;;4913920;29;20099;-67
2023/12/08 03:15:08;;;;;;;14.52;9.35;;;1.20;99.90;;;;;;4914207;29;20032;-68
2023/12/08 03:17:34;;;;;;;14.35;9.02;;;1.40;99.90;;;;;;4914065;29;20032;-68
2023/12/08 03:19:59;;;;;;;21.45;9.68;;;1.40;99.90;;;;;;4913197;29;20123;-67
2023/12/08 03:22:26;;;;;;;13.95;8.98;;;1.40;99.90;;;;;;4914041;29;20051;-67
2023/12/08 03:24:51;;;;;;;13.70;8.73;;;1.30;99.90;;;;;;4914036;29;20028;-68
2023/12/08 03:27:17;;;;;;;16.80;9.85;;;1.30;99.90;;;;;;4914119;29;20099;-67
2023/12/08 03:29:43;;;;;;;14.52;9.10;;;1.30;99.90;;;;;;4911075;29;20054;-68
2023/12/08 03:32:08;;;;;;;15.65;8.60;;;1.20;99.90;;;;;;4913901;29;20032;-67
2023/12/08 03:34:34;;;;;;;15.70;7.97;;;1.20;99.90;;;;;;4914763;29;20032;-67
2023/12/08 03:37:00;;;;;;;9.82;6.30;;;1.10;99.90;;;;;;4913327;29;20059;-67
2023/12/08 03:39:26;;;;;;;12.55;6.80;;;1.20;99.90;;;;;;4913886;29;20099;-67
2023/12/08 03:41:51;;;;;;;11.13;6.93;;;1.20;99.90;;;;;;4907135;29;20040;-67
2023/12/08 03:44:17;;;;;;;14.85;8.27;;;1.20;99.90;;;;;;4914096;29;20032;-67
2023/12/08 03:46:43;;;;;;;10.63;7.60;;;1.20;99.90;;;;;;4913667;29;20474;-67
2023/12/08 03:49:09;;;;;;;16.13;8.55;;;1.20;99.90;;;;;;4914170;29;20119;-67
2023/12/08 03:51:34;;;;;;;14.13;8.27;;;1.30;99.90;;;;;;4913930;29;20116;-67
2023/12/08 03:54:00;;;;;;;16.88;8.63;;;1.30;99.90;;;;;;4913503;29;20036;-67
2023/12/08 03:56:25;;;;;;;15.80;8.10;;;1.30;99.90;;;;;;4914000;29;20079;-67
2023/12/08 03:58:51;;;;;;;18.58;9.65;;;1.30;99.90;;;;;;4913281;29;20470;-67
2023/12/08 04:01:18;;;;;;;16.38;9.55;;;1.30;99.90;;;;;;4917118;29;20454;-67
2023/12/08 04:03:43;;;;;;;17.77;9.35;;;1.30;99.90;;;;;;4917389;29;20087;-67
2023/12/08 04:06:09;;;;;;;17.38;9.10;;;1.30;99.90;;;;;;4917359;29;20427;-67
2023/12/08 04:08:34;;;;;;;16.73;8.43;;;1.30;99.90;;;;;;4917898;29;20039;-67
2023/12/08 04:11:00;;;;;;;13.10;7.28;;;1.30;99.90;;;;;;4916276;29;20363;-67
2023/12/08 04:13:26;;;;;;;10.82;7.03;;;1.20;99.90;;;;;;4917801;29;20028;-67
2023/12/08 04:15:51;;;;;;;10.25;5.97;;;1.30;99.90;;;;;;4916453;29;20481;-67
2023/12/08 04:18:17;;;;;;;11.30;6.75;;;1.30;99.90;;;;;;4917306;29;20032;-68
2023/12/08 04:20:42;;;;;;;12.20;6.63;;;1.30;99.90;;;;;;4917140;29;20032;-68
2023/12/08 04:23:08;;;;;;;9.73;6.28;;;1.30;99.90;;;;;;4917055;29;20441;-67
2023/12/08 04:25:34;;;;;;;9.68;6.78;;;1.40;99.90;;;;;;4917680;29;20115;-67
2023/12/08 04:28:00;;;;;;;15.63;6.40;;;1.50;99.90;;;;;;4916266;29;20040;-67
2023/12/08 04:30:25;;;;;;;9.57;5.45;;;1.60;99.90;;;;;;4916738;29;20036;-67
2023/12/08 04:32:51;;;;;;;10.07;6.15;;;1.70;99.90;;;;;;4916348;29;20028;-67
2023/12/08 04:35:17;;;;;;;10.07;6.10;;;1.80;99.90;;;;;;4916804;29;20028;-67
2023/12/08 04:37:42;;;;;;;9.30;5.75;;;1.80;99.90;;;;;;4915927;29;20056;-67
2023/12/08 04:40:08;;;;;;;11.25;6.70;;;1.80;99.90;;;;;;4916789;29;20036;-67
2023/12/08 04:42:36;;;;;;;11.40;5.80;;;1.90;99.90;;;;;;4910990;29;20478;-68
2023/12/08 04:45:02;;;;;;;11.32;6.78;;;1.90;99.90;;;;;;4916398;29;20506;-67
2023/12/08 04:47:28;;;;;;;15.43;8.57;;;2.00;99.90;;;;;;4916504;29;20473;-67
2023/12/08 04:49:54;;;;;;;14.90;8.65;;;2.00;99.90;;;;;;4916013;29;20112;-67
2023/12/08 04:52:19;;;;;;;17.67;9.82;;;1.80;99.90;;;;;;4916634;29;20032;-67
2023/12/08 04:54:45;;;;;;;15.10;9.30;;;1.60;99.90;;;;;;4916506;29;20446;-67
2023/12/08 04:57:11;;;;;;;14.73;10.23;;;1.40;99.90;;;;;;4916604;29;20039;-67
2023/12/08 04:59:37;;;;;;;15.45;10.13;;;1.30;99.90;;;;;;4916611;29;20500;-67
2023/12/08 05:02:03;;;;;;;19.33;10.70;;;1.20;99.90;;;;;;4915527;29;20024;-67
2023/12/08 05:04:29;;;;;;;17.70;10.10;;;1.10;99.90;;;;;;4917320;29;20036;-68
2023/12/08 05:06:54;;;;;;;14.43;9.70;;;1.00;99.90;;;;;;4915269;29;20040;-67
2023/12/08 05:09:20;;;;;;;15.02;9.93;;;1.00;99.90;;;;;;4916800;29;20028;-67
2023/12/08 05:11:46;;;;;;;17.70;10.07;;;0.90;99.90;;;;;;4915093;29;20474;-67
2023/12/08 05:14:11;;;;;;;18.90;10.23;;;0.90;99.90;;;;;;4916899;29;20523;-68
2023/12/08 05:16:37;;;;;;;15.52;10.45;;;0.90;99.90;;;;;;4915843;29;20032;-68
2023/12/08 05:19:03;;;;;;;19.42;10.82;;;0.90;99.90;;;;;;4915315;29;20099;-68
2023/12/08 05:21:28;;;;;;;19.23;11.05;;;0.90;99.90;;;;;;4915958;29;20042;-68
2023/12/08 05:23:54;;;;;;;17.05;9.98;;;0.90;99.90;;;;;;4916181;29;20036;-68
2023/12/08 05:26:20;;;;;;;16.75;10.45;;;0.90;99.90;;;;;;4917539;29;20091;-68
2023/12/08 05:28:45;;;;;;;20.65;11.10;;;0.90;99.90;;;;;;4911819;29;20475;-67
2023/12/08 05:31:12;;;;;;;19.58;11.02;;;0.90;99.90;;;;;;4908696;29;20118;-68
2023/12/08 05:33:38;;;;;;;18.70;11.23;;;1.00;99.90;;;;;;4916443;29;20441;-68
2023/12/08 05:36:04;;;;;;;19.83;11.68;;;1.00;99.90;;;;;;4914926;29;20059;-67
2023/12/08 05:38:30;;;;;;;21.30;11.90;;;1.00;99.90;;;;;;4916033;29;20123;-67
2023/12/08 05:40:56;;;;;;;19.55;9.73;;;1.00;99.90;;;;;;4914986;29;20221;-68
2023/12/08 05:43:22;;;;;;;15.90;8.82;;;1.10;99.90;;;;;;4899276;29;20411;-67
2023/12/08 05:45:47;;;;;;;13.80;8.75;;;1.20;99.90;;;;;;4914386;29;20111;-66
2023/12/08 05:48:13;;;;;;;17.00;8.35;;;1.30;99.90;;;;;;4916456;29;20039;-66
2023/12/08 05:50:38;;;;;;;15.45;9.05;;;1.30;99.90;;;;;;4916308;29;20036;-65
2023/12/08 05:53:04;;;;;;;14.82;8.75;;;1.40;99.90;;;;;;4914878;29;20622;-66
2023/12/08 05:55:30;;;;;;;15.73;9.25;;;1.40;99.90;;;;;;4915967;29;20032;-66
2023/12/08 05:57:55;;;;;;;13.55;8.77;;;1.40;99.90;;;;;;4914835;29;20032;-66
2023/12/08 06:00:21;;;;;;;17.65;9.73;;;1.40;99.90;;;;;;4915729;29;20381;-65
2023/12/08 06:02:46;;;;;;;17.63;10.48;;;1.30;99.90;;;;;;4914635;29;20028;-65
2023/12/08 06:05:13;;;;;;;15.00;9.80;;;1.30;99.90;;;;;;4915248;29;20079;-64
2023/12/08 06:07:39;;;;;;;15.27;9.75;;;1.30;99.90;;;;;;4915480;29;20574;-65
2023/12/08 06:10:07;;;;;;;17.83;9.82;;;1.20;99.90;;;;;;4899383;29;20043;-64
2023/12/08 06:12:33;;;;;;;16.90;9.93;;;1.20;99.90;;;;;;4915239;29;20036;-71
2023/12/08 06:15:00;;;;;;;14.98;10.38;;;1.20;99.90;;;;;;4914905;29;20374;-68
2023/12/08 06:17:29;;;;;;;18.20;9.75;;;1.20;99.90;;;;;;4914697;29;20415;-65
2023/12/08 06:19:56;;;;;;;20.13;10.77;;;1.30;99.90;;;;;;4901977;29;20080;-67
2023/12/08 06:22:21;;;;;;;17.98;10.45;;;1.30;99.90;;;;;;4915053;29;20126;-66
2023/12/08 06:24:47;;;;;;;16.80;10.15;;;1.20;99.90;;;;;;4914119;29;20053;-66
2023/12/08 06:27:12;;;;;;;18.70;11.55;;;1.20;99.90;;;;;;4914813;29;20331;-66
2023/12/08 06:29:38;;;;;;;19.17;11.88;;;1.20;99.90;;;;;;4904515;29;20044;-65
2023/12/08 06:32:04;;;;;;;18.52;10.73;;;1.30;99.90;;;;;;4913627;29;20043;-65
2023/12/08 06:34:30;;;;;;;21.27;12.43;;;1.30;99.90;;;;;;4913878;29;20052;-65
2023/12/08 06:36:56;;;;;;;13.55;8.98;;;1.30;99.90;;;;;;4913477;29;20123;-65
2023/12/08 06:39:22;;;;;;;13.75;8.88;;;1.30;99.90;;;;;;4914467;29;20056;-65
2023/12/08 06:41:48;;;;;;;14.40;9.10;;;1.30;99.90;;;;;;4913422;29;20088;-65
2023/12/08 06:44:13;;;;;;;16.13;10.00;;;1.30;99.90;;;;;;4915276;29;20545;-66
2023/12/08 06:46:39;;;;;;;17.88;9.05;;;1.40;99.90;;;;;;4920194;29;20058;-65
2023/12/08 06:49:05;;;;;;;16.40;9.52;;;1.40;99.90;;;;;;4920883;29;20807;-65
2023/12/08 06:51:34;;;;;;;11.98;8.10;;;1.40;99.90;;;;;;4917280;29;20074;-65
2023/12/08 06:53:59;;;;;;;15.90;8.63;;;1.40;99.90;;;;;;4913681;29;20071;-65
2023/12/08 06:56:25;;;;;;;13.30;7.50;;;1.40;99.90;;;;;;4898965;29;20086;-65
2023/12/08 06:58:50;;;;;;;18.38;8.25;;;1.50;99.90;;;;;;4914321;29;20024;-66
2023/12/08 07:01:16;;;;;;;11.98;8.05;;;1.50;99.90;;;;;;4912700;29;20071;-66
2023/12/08 07:03:42;;;;;;;12.98;8.20;;;1.50;99.90;;;;;;4914373;29;20545;-65
2023/12/08 07:06:07;;;;;;;19.20;8.35;;;1.50;99.90;;;;;;4913696;29;20031;-66
2023/12/08 07:08:33;;;;;;;14.63;8.60;;;1.60;99.90;;;;;;4914440;29;20147;-66
2023/12/08 07:10:58;;;;;;;12.98;8.48;;;1.50;99.90;;;;;;4913331;29;20056;-66
2023/12/08 07:13:24;;;;;;;15.55;8.20;;;1.50;99.90;;;;;;4914571;29;20474;-66
2023/12/08 07:15:50;;;;;;;13.07;8.93;;;1.60;99.90;;;;;;4896609;29;20032;-66
2023/12/08 07:18:16;;;;;;;19.73;9.98;;;1.60;99.90;;;;;;4917880;29;20032;-66
2023/12/08 07:20:42;;;;;;;20.60;13.32;;;1.60;99.90;;;;;;4915774;29;20043;-66
2023/12/08 07:23:08;;;;;;;24.40;12.18;;;1.60;99.90;;;;;;4929855;29;20032;-66
2023/12/08 07:25:33;;;;;;;21.77;13.18;;;1.70;99.90;;;;;;4918934;29;20211;-66
2023/12/08 07:27:59;;;;;;;21.67;12.90;;;1.80;99.90;;;;;;4912713;29;20081;-67
2023/12/08 07:30:25;;;;;;;23.45;14.23;;;1.70;99.90;;;;;;4914727;29;20386;-67
2023/12/08 07:32:51;;;;;;;22.17;12.98;;;1.80;99.90;;;;;;4912844;29;20043;-66
2023/12/08 07:35:16;;;;;;;19.80;12.55;;;1.90;99.90;;;;;;4916667;29;20127;-67
2023/12/08 07:37:42;;;;;;;17.08;11.10;;;1.90;99.90;;;;;;4917060;29;20109;-66
2023/12/08 07:40:09;;;;;;;20.95;13.13;;;1.90;99.90;;;;;;4917387;29;20044;-67
2023/12/08 07:42:36;;;;;;;18.95;12.68;;;1.80;99.90;;;;;;4917634;29;20040;-66
2023/12/08 07:45:04;;;;;;;20.17;11.98;;;1.90;99.90;;;;;;4917080;29;20062;-66
2023/12/08 07:47:29;;;;;;;21.55;12.82;;;1.90;99.90;;;;;;4914436;29;20035;-66
2023/12/08 07:49:55;;;;;;;26.13;12.93;;;1.90;99.90;;;;;;4917150;29;20467;-66
2023/12/08 07:52:20;;;;;;;22.17;13.00;;;1.90;99.90;;;;;;4918076;29;20051;-66
2023/12/08 07:54:46;;;;;;;25.20;13.05;;;1.90;99.90;;;;;;4901347;29;20036;-66
2023/12/08 07:57:12;;;;;;;24.38;13.25;;;2.00;99.90;;;;;;4910380;29;20036;-66
2023/12/08 07:59:37;;;;;;;27.88;14.88;;;2.00;99.90;;;;;;4917023;29;20055;-66
2023/12/08 08:02:03;;;;;;;24.48;13.75;;;2.00;99.90;;;;;;4916376;29;20111;-66
2023/12/08 08:04:29;;;;;;;24.33;13.90;;;2.00;99.90;;;;;;4918010;29;20418;-65
2023/12/08 08:06:54;;;;;;;17.98;11.25;;;2.10;99.90;;;;;;4916103;29;20474;-66
2023/12/08 08:09:20;;;;;;;22.50;13.70;;;2.10;99.90;;;;;;4917147;29;20032;-65
2023/12/08 08:11:46;;;;;;;24.83;13.40;;;2.20;99.90;;;;;;4916356;29;20043;-66
2023/12/08 08:14:12;;;;;;;19.10;11.48;;;2.30;99.90;;;;;;4917789;29;20099;-66
2023/12/08 08:16:37;;;;;;;29.15;16.60;;;2.30;99.90;;;;;;4920985;29;20035;-66
2023/12/08 08:19:03;;;;;;;27.85;16.50;;;2.40;99.90;;;;;;4916617;29;20035;-66
2023/12/08 08:21:28;;;;;;;31.70;16.77;;;2.50;99.90;;;;;;4916647;29;20028;-66
2023/12/08 08:23:54;;;;;;;20.95;11.13;;;2.60;99.90;;;;;;4916253;29;20115;-66
2023/12/08 08:26:20;;;;;;;27.52;14.73;;;2.70;99.90;;;;;;4917410;29;20043;-66
2023/12/08 08:28:45;;;;;;;21.52;12.88;;;2.90;99.90;;;;;;4916424;29;20140;-66
2023/12/08 08:31:12;;;;;;;22.15;12.20;;;;;;;;;;4916812;29;20040;-66
2023/12/08 08:33:38;;;;;;;34.58;19.63;;;3.20;99.90;;;;;;4922707;29;20032;-66
2023/12/08 08:36:05;;;;;;;30.98;18.70;;;3.20;99.90;;;;;;4915626;29;20024;-66
2023/12/08 08:38:31;;;;;;;32.17;17.98;;;3.20;99.90;;;;;;4912307;29;20107;-66
2023/12/08 08:40:57;;;;;;;33.58;19.13;;;3.10;99.90;;;;;;4916143;29;20457;-66
2023/12/08 08:43:22;;;;;;;34.60;20.17;;;3.00;99.90;;;;;;4926388;29;20499;-66
2023/12/08 08:45:48;;;;;;;30.50;18.95;;;2.90;99.90;;;;;;4915011;29;20031;-66
2023/12/08 08:48:13;;;;;;;38.13;20.40;;;2.80;99.90;;;;;;4907644;29;20074;-66
2023/12/08 08:50:39;;;;;;;36.50;19.70;;;2.80;99.90;;;;;;4899946;29;20039;-66
2023/12/08 08:53:05;;;;;;;43.85;18.00;;;2.70;99.90;;;;;;4908769;29;20028;-67
2023/12/08 08:55:31;;;;;;;33.50;19.20;;;2.70;99.90;;;;;;4896723;29;20039;-66
2023/12/08 08:57:56;;;;;;;31.45;18.92;;;2.60;99.90;;;;;;4903479;29;20035;-66
2023/12/08 09:00:25;;;;;;;30.30;18.52;;;2.60;99.90;;;;;;4903754;29;20379;-66
2023/12/08 09:02:51;;;;;;;36.80;19.58;;;2.50;99.90;;;;;;4906956;29;20076;-67
2023/12/08 09:05:18;;;;;;;38.05;19.40;;;2.50;99.90;;;;;;4910284;29;20116;-66
2023/12/08 09:07:44;;;;;;;37.30;20.00;;;2.40;99.90;;;;;;4915188;29;20040;-66
2023/12/08 09:10:10;;;;;;;36.67;20.77;;;2.40;99.90;;;;;;4915997;29;20040;-67
2023/12/08 09:12:36;;;;;;;37.13;21.10;;;2.40;99.90;;;;;;4916036;29;20482;-65
2023/12/08 09:15:01;;;;;;;34.55;19.77;;;2.40;99.90;;;;;;4906737;29;20031;-65
2023/12/08 09:17:27;;;;;;;44.90;23.08;;;2.50;99.90;;;;;;4907766;29;24450;-68
2023/12/08 09:19:52;;;;;;;38.63;21.65;;;2.50;99.90;;;;;;4908924;29;20040;-67
2023/12/08 09:22:18;;;;;;;37.40;21.77;;;2.50;99.90;;;;;;4908808;29;20043;-66
2023/12/08 09:24:43;;;;;;;34.50;20.23;;;2.60;99.90;;;;;;4914997;29;20534;-66
2023/12/08 09:27:10;;;;;;;38.63;20.90;;;2.60;99.90;;;;;;4915443;29;20100;-66
2023/12/08 09:29:36;;;;;;;35.83;19.45;;;2.70;99.90;;;;;;4916351;29;20028;-67
2023/12/08 09:32:02;;;;;;;37.97;21.13;;;2.70;99.90;;;;;;4915185;29;20031;-67
2023/12/08 09:34:27;;;;;;;40.10;21.15;;;2.80;99.90;;;;;;4915610;29;20028;-66
2023/12/08 09:36:53;;;;;;;34.85;20.92;;;2.90;99.90;;;;;;4914669;29;20114;-66
2023/12/08 09:39:21;;;;;;;36.25;20.92;;;3.00;99.90;;;;;;4915402;29;20044;-67
2023/12/08 09:41:50;;;;;;;37.10;21.27;;;3.10;99.90;;;;;;4913522;29;20032;-66
2023/12/08 09:44:18;;;;;;;40.95;21.75;;;3.10;99.90;;;;;;4915314;29;20039;-67
2023/12/08 09:46:45;;;;;;;38.45;21.27;;;3.10;99.90;;;;;;4911869;29;20036;-66
2023/12/08 09:49:29;;;;;;;39.58;21.90;;;3.20;99.90;;;;;;4911962;29;20048;-66
2023/12/08 09:51:59;;;;;;;35.80;21.75;;;3.20;99.90;;;;;;4903351;29;20107;-67
2023/12/08 09:54:26;;;;;;;31.67;19.58;;;3.20;99.90;;;;;;4904142;29;20123;-66
2023/12/08 09:56:53;;;;;;;34.13;18.20;;;3.30;99.90;;;;;;4929863;29;20036;-67
2023/12/08 09:59:23;;;;;;;29.00;16.13;;;3.30;99.90;;;;;;4917447;29;20423;-67
2023/12/08 10:01:52;;;;;;;24.50;13.55;;;;;;;;;;4910184;29;20032;-67
2023/12/08 10:04:18;;;;;;;19.63;11.20;;;;;;;;;;4916359;29;20672;-66
2023/12/08 10:06:44;;;;;;;17.70;9.75;;;;;;;;;;4916043;29;20027;-67
2023/12/08 10:09:11;;;;;;;16.77;9.52;;;;;;;;;;4916384;29;20032;-66
2023/12/08 10:11:38;;;;;;;16.42;9.10;;;4.80;99.90;;;;;;4920163;29;20028;-67
2023/12/08 10:14:05;;;;;;;14.02;8.13;;;4.20;99.90;;;;;;4918080;29;20052;-66
2023/12/08 10:16:31;;;;;;;13.70;7.53;;;4.30;99.90;;;;;;4911324;29;20042;-67
2023/12/08 10:19:07;;;;;;;13.27;6.65;;;4.40;99.90;;;;;;4910294;29;20028;-66
2023/12/08 10:21:36;;;;;;;15.35;7.30;;;4.50;99.90;;;;;;4907722;29;20032;-67
2023/12/08 10:24:03;;;;;;;9.48;5.90;;;4.50;99.90;;;;;;4909197;29;20083;-67
2023/12/08 10:26:30;;;;;;;9.88;5.78;;;4.60;99.90;;;;;;4914446;29;20048;-67
2023/12/08 10:28:57;;;;;;;10.43;5.82;;;4.70;99.90;;;;;;4915118;29;20095;-67
2023/12/08 10:31:23;;;;;;;11.70;5.90;;;4.80;99.90;;;;;;4914562;29;20032;-67
2023/12/08 10:33:52;;;;;;;9.80;5.50;;;4.80;99.90;;;;;;4913889;29;20493;-67
2023/12/08 10:36:21;;;;;;;12.60;5.47;;;4.90;99.90;;;;;;4893223;29;20456;-67
2023/12/08 10:38:47;;;;;;;8.05;5.38;;;4.90;99.90;;;;;;4913649;29;20315;-67
2023/12/08 10:41:14;;;;;;;9.05;5.00;;;4.90;99.90;;;;;;4914217;29;20111;-67
2023/12/08 10:43:40;;;;;;;8.15;5.43;;;5.00;99.90;;;;;;4914882;29;20047;-67
2023/12/08 10:46:07;;;;;;;9.60;4.63;;;5.00;99.90;;;;;;4913395;29;20024;-66
2023/12/08 10:48:34;;;;;;;7.68;5.07;;;5.00;99.90;;;;;;4908999;29;20035;-66
2023/12/08 10:51:00;;;;;;;8.38;5.45;;;5.00;99.90;;;;;;4910141;29;20039;-66
2023/12/08 10:53:26;;;;;;;8.45;6.18;;;5.10;99.90;;;;;;4909261;29;20036;-66
2023/12/08 10:56:00;;;;;;;12.40;4.95;;;5.10;99.90;;;;;;4903636;29;20024;-67
2023/12/08 10:58:28;;;;;;;6.68;4.72;;;5.10;99.90;;;;;;4915020;29;20051;-67
2023/12/08 11:00:55;;;;;;;7.10;4.28;;;5.20;99.90;;;;;;4903557;29;20044;-67
2023/12/08 11:03:21;;;;;;;6.60;4.10;;;5.20;99.90;;;;;;4914407;29;20461;-67
2023/12/08 11:06:13;;;;;;;7.72;5.03;;;5.30;99.90;;;;;;4913155;29;20059;-67
2023/12/08 11:08:45;;;;;;;6.72;4.50;;;5.40;99.90;;;;;;4912783;29;20044;-68
2023/12/08 11:11:12;;;;;;;6.88;4.38;;;5.50;99.90;;;;;;4913766;29;20497;-68
2023/12/08 11:13:45;;;;;;;6.80;4.15;;;5.50;99.90;;;;;;4914413;29;20036;-68
2023/12/08 11:16:37;;;;;;;7.65;4.10;;;5.60;99.90;;;;;;4912201;29;20028;-67
2023/12/08 11:19:05;;;;;;;10.13;5.03;;;5.70;99.90;;;;;;4911150;29;20526;-67
2023/12/08 11:21:31;;;;;;;10.07;4.70;;;5.70;99.90;;;;;;4917431;29;20031;-67
2023/12/08 11:23:57;;;;;;;17.27;7.85;;;5.80;99.90;;;;;;4914155;29;20040;-66
2023/12/08 11:26:23;;;;;;;14.00;9.23;;;5.90;99.90;;;;;;4913854;29;20067;-66
2023/12/08 11:29:11;;;;;;;17.35;10.73;;;6.00;99.90;;;;;;4913931;29;20058;-66
2023/12/08 11:31:47;;;;;;;24.10;12.77;;;6.10;99.90;;;;;;4900574;29;20042;-66
2023/12/08 11:34:22;;;;;;;19.95;12.45;;;6.00;99.90;;;;;;4914596;29;20473;-66
2023/12/08 11:36:50;;;;;;;23.83;12.90;;;5.90;99.90;;;;;;4908794;29;20039;-66
2023/12/08 11:39:38;;;;;;;20.08;11.75;;;5.80;99.90;;;;;;4913707;29;20525;-67
2023/12/08 11:42:12;;;;;;;19.00;11.70;;;5.80;99.90;;;;;;4912747;29;20466;-67
2023/12/08 11:44:41;;;;;;;22.25;11.75;;;5.70;99.90;;;;;;4914581;29;20076;-66
2023/12/08 11:47:07;;;;;;;19.55;11.75;;;5.80;99.90;;;;;;4909828;29;20032;-67
2023/12/08 11:49:38;;;;;;;23.35;11.25;;;5.90;99.90;;;;;;4908658;29;20029;-65
2023/12/08 11:52:24;;;;;;;21.63;12.20;;;6.00;99.90;;;;;;4902775;29;20044;-65
2023/12/08 11:55:12;;;;;;;21.25;12.88;;;6.00;99.90;;;;;;4903839;29;20029;-65
2023/12/08 11:57:50;;;;;;;20.17;11.30;;;6.00;99.90;;;;;;4899977;29;20032;-65
2023/12/08 12:00:19;;;;;;;17.60;11.48;;;5.90;99.90;;;;;;4914031;29;20082;-65
2023/12/08 12:02:46;;;;;;;18.15;11.55;;;6.00;99.90;;;;;;4913377;29;20319;-65
2023/12/08 12:05:12;;;;;;;19.40;11.82;;;6.00;99.90;;;;;;4913970;29;20103;-64
2023/12/08 12:07:39;;;;;;;18.02;12.13;;;6.20;99.90;;;;;;4913854;29;20423;-64
2023/12/08 12:10:12;;;;;;;20.67;11.82;;;6.20;99.90;;;;;;4913136;29;20100;-65
2023/12/08 12:13:12;;;;;;;18.30;12.30;;;6.30;99.90;;;;;;4913358;29;21625;-64
2023/12/08 12:15:38;;;;;;;20.52;12.60;;;6.50;99.90;;;;;;4886521;29;20070;-66
2023/12/08 12:18:04;;;;;;;15.13;10.15;;;6.70;99.90;;;;;;4908852;29;20095;-73
2023/12/08 12:20:34;;;;;;;18.58;12.02;;;6.70;99.90;;;;;;4908663;29;20032;-65
2023/12/08 12:22:59;;;;;;;19.98;12.13;;;6.70;99.90;;;;;;4910066;29;20401;-67
2023/12/08 12:25:25;;;;;;;21.60;11.82;;;6.80;99.90;;;;;;4918023;29;20084;-64
2023/12/08 12:27:53;;;;;;;19.02;12.05;;;6.80;99.90;;;;;;4916425;29;20391;-64
2023/12/08 12:30:19;;;;;;;18.83;11.48;;;6.80;99.90;;;;;;4917435;29;20051;-64
2023/12/08 12:32:47;;;;;;;16.50;10.48;;;6.90;99.90;;;;;;4916190;29;20372;-64
2023/12/08 12:35:13;;;;;;;18.90;10.57;;;7.00;99.90;;;;;;4912326;29;20036;-65
2023/12/08 12:37:39;;;;;;;11.93;7.28;;;7.00;99.90;;;;;;4916360;29;20150;-64
2023/12/08 12:40:07;;;;;;;14.57;9.05;;;7.00;99.90;;;;;;4916651;29;20033;-64
2023/12/08 12:42:59;;;;;;;10.63;7.22;;;7.00;99.90;;;;;;4916368;29;20394;-64